createdAt,value
2022-10-22T00:00:00.850Z,43.20
2022-10-22T00:02:27.849Z,36.50
2022-10-22T00:04:56.908Z,26.27
2022-10-22T00:07:23.612Z,70.30
2022-10-22T00:09:50.086Z,33.38
2022-10-22T00:12:16.702Z,35.13
2022-10-22T00:14:43.124Z,33.05
2022-10-22T00:17:11.528Z,36.95
2022-10-22T00:19:38.890Z,31.75
2022-10-22T00:22:05.844Z,47.90
2022-10-22T00:24:33.664Z,32.30
2022-10-22T00:27:00.226Z,36.28
2022-10-22T00:29:26.652Z,35.60
2022-10-22T00:31:53.136Z,30.98
2022-10-22T00:34:21.297Z,48.33
2022-10-22T00:36:51.745Z,42.80
2022-10-22T00:39:19.770Z,29.75
2022-10-22T00:41:48.081Z,32.97
2022-10-22T00:44:52.200Z,40.28
2022-10-22T00:47:19.242Z,28.73
2022-10-22T00:49:46.894Z,39.10
2022-10-22T00:52:15.131Z,60.28
2022-10-22T00:54:42.490Z,49.50
2022-10-22T00:57:09.534Z,72.60
2022-10-22T00:59:37.371Z,105.22
2022-10-22T01:02:04.373Z,41.70
2022-10-22T01:04:30.790Z,22.08
2022-10-22T01:06:57.433Z,35.00
2022-10-22T01:09:45.868Z,35.58
2022-10-22T01:12:18.333Z,32.50
2022-10-22T01:15:02.588Z,25.02
2022-10-22T01:17:40.853Z,25.25
2022-10-22T01:20:39.935Z,26.92
2022-10-22T01:23:50.886Z,32.00
2022-10-22T01:26:43.846Z,38.20
2022-10-22T01:29:18.434Z,34.15
2022-10-22T01:31:54.012Z,31.90
2022-10-22T01:34:22.074Z,34.58
2022-10-22T01:36:50.287Z,37.60
2022-10-22T01:39:17.880Z,33.85
2022-10-22T01:41:48.233Z,47.50
2022-10-22T01:47:39.299Z,24.48
2022-10-22T01:50:30.174Z,125.20
2022-10-22T01:53:07.364Z,107.32
2022-10-22T01:56:06.448Z,27.60
2022-10-22T01:58:38.678Z,29.17
2022-10-22T02:01:32.010Z,28.15
2022-10-22T02:04:22.702Z,26.95
2022-10-22T02:06:54.753Z,29.15
2022-10-22T02:09:24.122Z,56.08
2022-10-22T02:11:51.154Z,45.25
2022-10-22T02:14:19.536Z,41.72
2022-10-22T02:16:48.559Z,46.38
2022-10-22T02:19:25.287Z,33.38
2022-10-22T02:21:52.589Z,30.40
2022-10-22T02:24:19.663Z,26.95
2022-10-22T02:27:04.674Z,31.08
2022-10-22T02:29:39.346Z,35.13
2022-10-22T02:32:08.792Z,34.45
2022-10-22T02:34:35.537Z,33.55
2022-10-22T02:37:03.172Z,41.03
2022-10-22T02:39:31.480Z,27.52
2022-10-22T02:42:00.504Z,32.75
2022-10-22T02:44:26.924Z,24.70
2022-10-22T02:46:53.378Z,27.77
2022-10-22T02:49:19.952Z,26.92
2022-10-22T02:51:46.872Z,23.42
2022-10-22T02:54:13.286Z,27.08
2022-10-22T02:56:39.768Z,22.65
2022-10-22T02:59:06.225Z,30.80
2022-10-22T03:01:32.665Z,31.73
2022-10-22T03:03:59.200Z,32.45
2022-10-22T03:08:52.015Z,36.05
2022-10-22T03:11:18.463Z,40.70
2022-10-22T03:13:45.042Z,38.30
2022-10-22T03:16:11.704Z,35.30
2022-10-22T03:18:38.158Z,68.50
2022-10-22T03:21:11.035Z,35.88
2022-10-22T03:23:38.888Z,31.35
2022-10-22T03:26:07.167Z,30.35
2022-10-22T03:28:35.651Z,34.15
2022-10-22T03:31:02.048Z,35.08
2022-10-22T03:33:28.483Z,25.70
2022-10-22T03:35:54.925Z,27.45
2022-10-22T03:38:21.346Z,38.47
2022-10-22T03:40:47.869Z,26.75
2022-10-22T03:43:14.554Z,31.15
2022-10-22T03:45:40.989Z,24.70
2022-10-22T03:48:07.457Z,37.45
2022-10-22T03:50:33.940Z,30.30
2022-10-22T03:53:00.416Z,25.67
2022-10-22T03:55:27.014Z,23.33
2022-10-22T03:57:53.428Z,24.65
2022-10-22T04:00:19.907Z,30.42
2022-10-22T04:02:46.312Z,26.48
2022-10-22T04:07:44.170Z,25.10
2022-10-22T04:10:10.662Z,28.85
2022-10-22T04:12:37.073Z,30.88
2022-10-22T04:15:04.405Z,24.77
2022-10-22T04:17:35.475Z,24.95
2022-10-22T04:20:03.419Z,25.83
2022-10-22T04:22:29.866Z,26.10
2022-10-22T04:24:56.537Z,20.13
2022-10-22T04:27:22.936Z,25.10
2022-10-22T04:29:49.422Z,25.73
2022-10-22T04:32:16.016Z,29.35
2022-10-22T04:34:42.467Z,19.98
2022-10-22T04:37:08.878Z,26.75
2022-10-22T04:39:35.349Z,35.10
2022-10-22T04:42:01.781Z,27.73
2022-10-22T04:44:28.234Z,34.17
2022-10-22T04:46:54.652Z,29.48
2022-10-22T04:49:21.228Z,30.15
2022-10-22T04:51:47.632Z,79.20
2022-10-22T04:54:15.052Z,28.63
2022-10-22T04:56:41.747Z,40.53
2022-10-22T04:59:09.168Z,111.75
2022-10-22T05:01:42.608Z,40.35
2022-10-22T05:04:12.882Z,31.25
2022-10-22T05:06:39.385Z,34.30
2022-10-22T05:09:08.464Z,47.25
2022-10-22T05:11:37.557Z,28.83
2022-10-22T05:14:07.672Z,26.65
2022-10-22T05:16:34.920Z,31.38
2022-10-22T05:19:02.952Z,37.40
2022-10-22T05:21:29.692Z,36.05
2022-10-22T05:23:57.369Z,21.08
2022-10-22T05:26:25.005Z,32.47
2022-10-22T05:28:52.233Z,26.23
2022-10-22T05:31:18.992Z,26.50
2022-10-22T05:33:46.054Z,19.48
2022-10-22T05:36:16.228Z,29.95
2022-10-22T05:38:42.667Z,27.23
2022-10-22T05:41:14.059Z,19.55
2022-10-22T05:43:41.207Z,29.40
2022-10-22T05:46:10.109Z,21.90
2022-10-22T05:48:37.048Z,24.65
2022-10-22T05:51:05.993Z,28.92
2022-10-22T05:53:38.142Z,38.15
2022-10-22T05:56:08.109Z,57.95
2022-10-22T05:58:36.215Z,39.75
2022-10-22T06:01:08.612Z,37.13
2022-10-22T06:03:35.090Z,24.13
2022-10-22T06:06:04.662Z,27.83
2022-10-22T06:08:31.179Z,24.13
2022-10-22T06:10:58.053Z,29.58
2022-10-22T06:13:24.464Z,30.27
2022-10-22T06:15:53.773Z,32.97
2022-10-22T06:18:20.444Z,40.40
2022-10-22T06:20:48.004Z,28.05
2022-10-22T06:23:15.275Z,35.30
2022-10-22T06:25:42.453Z,31.30
2022-10-22T06:28:09.043Z,29.83
2022-10-22T06:30:37.607Z,32.80
2022-10-22T06:33:04.138Z,32.90
2022-10-22T06:35:30.666Z,33.20
2022-10-22T06:37:57.062Z,31.80
2022-10-22T06:40:24.424Z,32.92
2022-10-22T06:42:50.988Z,34.50
2022-10-22T06:45:17.404Z,40.58
2022-10-22T06:47:44.318Z,37.55
2022-10-22T06:50:10.754Z,32.45
2022-10-22T06:52:37.210Z,34.42
2022-10-22T06:55:03.751Z,35.10
2022-10-22T06:57:31.571Z,33.17
2022-10-22T06:59:58.002Z,36.88
2022-10-22T07:02:24.503Z,31.52
2022-10-22T07:04:50.954Z,35.95
2022-10-22T07:07:17.395Z,38.63
2022-10-22T07:09:46.914Z,37.28
2022-10-22T07:12:14.148Z,35.83
2022-10-22T07:14:40.598Z,32.33
2022-10-22T07:17:07.040Z,31.60
2022-10-22T07:19:33.654Z,25.83
2022-10-22T07:22:00.503Z,32.60
2022-10-22T07:24:26.923Z,29.90
2022-10-22T07:26:53.562Z,26.80
2022-10-22T07:29:20.155Z,27.35
2022-10-22T07:31:46.606Z,25.55
2022-10-22T07:34:13.025Z,25.10
2022-10-22T07:36:39.501Z,24.52
2022-10-22T07:39:05.942Z,27.33
2022-10-22T07:41:32.371Z,24.70
2022-10-22T07:43:58.977Z,23.40
2022-10-22T07:46:26.045Z,21.08
2022-10-22T07:48:52.896Z,23.70
2022-10-22T07:51:19.638Z,23.58
2022-10-22T07:53:46.178Z,26.27
2022-10-22T07:56:12.662Z,22.98
2022-10-22T07:58:41.524Z,22.48
2022-10-22T08:01:07.987Z,24.98
2022-10-22T08:03:35.515Z,24.05
2022-10-22T08:06:02.494Z,22.63
2022-10-22T08:08:30.932Z,26.33
2022-10-22T08:11:00.150Z,20.38
2022-10-22T08:13:27.526Z,24.67
2022-10-22T08:15:57.316Z,23.38
2022-10-22T08:18:24.377Z,19.90
2022-10-22T08:20:51.135Z,21.25
2022-10-22T08:23:17.535Z,18.45
2022-10-22T08:25:44.066Z,19.73
2022-10-22T08:28:10.619Z,25.65
2022-10-22T08:30:38.623Z,21.58
2022-10-22T08:33:05.712Z,22.70
2022-10-22T08:35:32.144Z,20.42
2022-10-22T08:37:58.636Z,18.15
2022-10-22T08:40:39.994Z,21.70
2022-10-22T08:43:39.329Z,23.85
2022-10-22T08:46:23.991Z,18.88
2022-10-22T08:49:00.332Z,18.40
2022-10-22T08:51:32.767Z,17.40
2022-10-22T08:54:13.530Z,19.75
2022-10-22T08:56:45.639Z,26.65
2022-10-22T08:59:20.115Z,18.23
2022-10-22T09:01:49.070Z,23.95
2022-10-22T09:04:37.331Z,19.67
2022-10-22T09:07:04.001Z,19.23
2022-10-22T09:09:38.149Z,21.08
2022-10-22T09:12:05.425Z,23.17
2022-10-22T09:14:31.820Z,21.08
2022-10-22T09:17:38.615Z,21.48
2022-10-22T09:20:28.503Z,23.85
2022-10-22T09:23:20.800Z,18.25
2022-10-22T09:25:53.462Z,19.50
2022-10-22T09:28:19.916Z,20.13
2022-10-22T09:30:46.424Z,20.33
2022-10-22T09:33:21.469Z,23.17
2022-10-22T09:38:21.941Z,20.17
2022-10-22T09:40:51.352Z,21.58
2022-10-22T09:43:18.514Z,17.77
2022-10-22T09:45:46.372Z,23.23
2022-10-22T09:48:21.396Z,18.30
2022-10-22T09:50:50.211Z,22.08
2022-10-22T09:53:25.181Z,21.35
2022-10-22T09:58:22.726Z,18.40
2022-10-22T10:00:58.539Z,21.08
2022-10-22T10:03:31.292Z,20.75
2022-10-22T10:06:06.391Z,17.92
2022-10-22T10:08:33.113Z,24.98
2022-10-22T10:11:05.792Z,18.63
2022-10-22T10:13:40.490Z,19.25
2022-10-22T10:16:24.734Z,17.48
2022-10-22T10:19:21.804Z,15.32
2022-10-22T10:22:06.604Z,19.13
2022-10-22T10:24:54.782Z,17.98
2022-10-22T10:27:39.873Z,20.27
2022-10-22T10:30:20.833Z,18.50
2022-10-22T10:33:02.691Z,19.92
2022-10-22T10:35:35.058Z,18.10
2022-10-22T10:38:15.392Z,16.95
2022-10-22T10:40:57.404Z,16.13
2022-10-22T10:43:35.905Z,17.08
2022-10-22T10:46:19.786Z,17.92
2022-10-22T10:49:38.735Z,14.48
2022-10-22T10:52:37.135Z,16.40
2022-10-22T10:55:25.719Z,15.82
2022-10-22T10:58:19.912Z,14.55
2022-10-22T11:01:04.562Z,18.60
2022-10-22T11:03:45.964Z,20.48
2022-10-22T11:06:16.144Z,17.35
2022-10-22T11:08:55.079Z,17.23
2022-10-22T11:11:26.689Z,18.70
2022-10-22T11:14:11.375Z,16.52
2022-10-22T11:16:48.205Z,16.65
2022-10-22T11:19:46.255Z,19.58
2022-10-22T11:22:22.415Z,19.35
2022-10-22T11:24:59.551Z,21.05
2022-10-22T11:27:51.389Z,17.27
2022-10-22T11:30:21.481Z,22.35
2022-10-22T11:33:02.927Z,14.88
2022-10-22T11:35:41.640Z,16.40
2022-10-22T11:38:12.221Z,14.85
2022-10-22T11:40:43.764Z,14.75
2022-10-22T11:43:25.456Z,14.77
2022-10-22T11:46:00.597Z,17.23
2022-10-22T11:48:28.820Z,14.63
2022-10-22T11:50:59.954Z,14.60
2022-10-22T11:53:35.139Z,15.27
2022-10-22T11:56:07.586Z,15.25
2022-10-22T11:58:39.131Z,12.32
2022-10-22T12:01:08.452Z,12.75
2022-10-22T12:03:34.819Z,12.90
2022-10-22T12:06:15.714Z,11.43
2022-10-22T12:08:52.213Z,11.88
2022-10-22T12:11:36.389Z,15.60
2022-10-22T12:14:26.496Z,12.00
2022-10-22T12:16:57.747Z,9.25
2022-10-22T12:19:36.284Z,10.45
2022-10-22T12:22:25.691Z,10.38
2022-10-22T12:24:54.535Z,12.50
2022-10-22T12:27:33.331Z,10.70
2022-10-22T12:30:00.944Z,14.18
2022-10-22T12:32:36.380Z,16.77
2022-10-22T12:35:08.330Z,13.55
2022-10-22T12:37:41.550Z,13.07
2022-10-22T12:40:26.102Z,10.77
2022-10-22T12:42:55.518Z,13.35
2022-10-22T12:45:23.426Z,16.33
2022-10-22T12:47:52.262Z,16.48
2022-10-22T12:50:22.961Z,11.23
2022-10-22T12:52:49.521Z,8.75
2022-10-22T12:55:17.821Z,9.38
2022-10-22T12:57:47.178Z,10.13
2022-10-22T13:00:25.643Z,8.32
2022-10-22T13:02:53.014Z,9.27
2022-10-22T13:05:19.331Z,9.15
2022-10-22T13:08:03.598Z,9.10
2022-10-22T13:10:39.417Z,10.25
2022-10-22T13:13:06.980Z,10.73
2022-10-22T13:15:36.699Z,13.15
2022-10-22T13:18:22.723Z,8.18
2022-10-22T13:21:04.103Z,9.07
2022-10-22T13:23:32.819Z,9.25
2022-10-22T13:26:18.088Z,10.90
2022-10-22T13:28:55.820Z,8.90
2022-10-22T13:31:27.764Z,7.88
2022-10-22T13:33:57.627Z,13.30
2022-10-22T13:36:24.459Z,8.30
2022-10-22T13:38:50.939Z,8.50
2022-10-22T13:41:30.976Z,8.75
2022-10-22T13:43:58.193Z,8.77
2022-10-22T13:46:26.136Z,8.75
2022-10-22T13:48:54.676Z,8.70
2022-10-22T13:51:24.343Z,10.38
2022-10-22T13:53:52.837Z,6.07
2022-10-22T13:56:21.832Z,8.40
2022-10-22T13:58:48.575Z,9.95
2022-10-22T14:01:26.797Z,7.05
2022-10-22T14:03:55.240Z,7.50
2022-10-22T14:06:22.742Z,8.65
2022-10-22T14:08:58.422Z,8.25
2022-10-22T14:11:27.463Z,9.23
2022-10-22T14:13:54.618Z,7.53
2022-10-22T14:16:24.251Z,5.93
2022-10-22T14:18:51.248Z,7.70
2022-10-22T14:21:18.651Z,8.70
2022-10-22T14:23:47.679Z,7.18
2022-10-22T14:26:35.196Z,9.20
2022-10-22T14:29:10.720Z,8.32
2022-10-22T14:31:43.108Z,11.70
2022-10-22T14:34:11.453Z,13.82
2022-10-22T14:36:37.905Z,9.85
2022-10-22T14:39:04.537Z,8.02
2022-10-22T14:41:30.957Z,10.38
2022-10-22T14:43:59.574Z,11.85
2022-10-22T14:46:26.041Z,9.48
2022-10-22T14:48:52.440Z,8.70
2022-10-22T14:51:20.599Z,8.73
2022-10-22T14:53:47.862Z,11.55
2022-10-22T14:56:16.490Z,7.15
2022-10-22T14:58:42.967Z,8.57
2022-10-22T15:01:09.484Z,9.18
2022-10-22T15:03:36.437Z,10.80
2022-10-22T15:06:03.489Z,10.25
2022-10-22T15:08:30.401Z,16.15
2022-10-22T15:11:07.146Z,9.68
2022-10-22T15:13:37.134Z,9.65
2022-10-22T15:16:07.809Z,13.02
2022-10-22T15:18:34.662Z,10.07
2022-10-22T15:21:03.709Z,11.55
2022-10-22T15:23:30.859Z,10.80
2022-10-22T15:25:57.493Z,10.80
2022-10-22T15:28:24.685Z,10.73
2022-10-22T15:30:59.777Z,9.55
2022-10-22T15:33:28.018Z,8.93
2022-10-22T15:35:55.060Z,7.05
2022-10-22T15:38:21.860Z,7.70
2022-10-22T15:40:48.342Z,13.13
2022-10-22T15:43:14.760Z,11.63
2022-10-22T15:45:41.228Z,11.43
2022-10-22T15:48:07.644Z,12.68
2022-10-22T15:50:38.269Z,10.18
2022-10-22T15:53:04.766Z,9.02
2022-10-22T15:55:31.432Z,7.80
2022-10-22T15:57:59.407Z,12.68
2022-10-22T16:00:28.571Z,7.38
2022-10-22T16:02:55.334Z,10.85
2022-10-22T16:05:21.915Z,6.60
2022-10-22T16:07:48.328Z,9.90
2022-10-22T16:10:14.803Z,6.40
2022-10-22T16:12:41.531Z,8.10
2022-10-22T16:15:09.420Z,9.70
2022-10-22T16:17:35.992Z,6.20
2022-10-22T16:20:02.576Z,7.45
2022-10-22T16:22:29.073Z,10.32
2022-10-22T16:24:55.502Z,10.90
2022-10-22T16:27:22.104Z,13.80
2022-10-22T16:29:48.918Z,6.93
2022-10-22T16:32:16.399Z,12.82
2022-10-22T16:34:42.826Z,10.40
2022-10-22T16:37:10.273Z,8.00
2022-10-22T16:39:37.023Z,11.13
2022-10-22T16:42:03.838Z,8.48
2022-10-22T16:44:30.243Z,10.32
2022-10-22T16:46:56.647Z,11.48
2022-10-22T16:49:23.082Z,9.70
2022-10-22T16:51:49.500Z,10.55
2022-10-22T16:54:17.067Z,9.05
2022-10-22T16:56:43.530Z,6.35
2022-10-22T16:59:09.966Z,8.70
2022-10-22T17:01:40.572Z,6.68
2022-10-22T17:04:07.496Z,5.85
2022-10-22T17:06:34.615Z,8.10
2022-10-22T17:09:01.169Z,10.57
2022-10-22T17:11:30.120Z,10.40
2022-10-22T17:13:56.722Z,7.72
2022-10-22T17:16:24.591Z,11.35
2022-10-22T17:18:52.885Z,8.73
2022-10-22T17:21:19.698Z,12.00
2022-10-22T17:23:46.922Z,10.73
2022-10-22T17:26:17.136Z,10.70
2022-10-22T17:28:43.880Z,10.85
2022-10-22T17:31:25.104Z,15.68
2022-10-22T17:33:54.099Z,12.93
2022-10-22T17:36:21.991Z,11.30
2022-10-22T17:38:52.808Z,10.13
2022-10-22T17:41:21.971Z,11.20
2022-10-22T17:43:48.653Z,10.95
2022-10-22T17:46:23.643Z,14.55
2022-10-22T17:48:54.791Z,12.23
2022-10-22T17:51:22.177Z,15.73
2022-10-22T17:53:52.074Z,12.75
2022-10-22T17:56:21.711Z,13.30
2022-10-22T17:58:48.253Z,12.00
2022-10-22T18:01:21.894Z,18.27
2022-10-22T18:03:48.722Z,16.58
2022-10-22T18:06:15.313Z,13.27
2022-10-22T18:08:41.922Z,13.63
2022-10-22T18:11:10.854Z,17.95
2022-10-22T18:13:37.411Z,14.75
2022-10-22T18:16:04.753Z,12.63
2022-10-22T18:18:32.066Z,18.42
2022-10-22T18:21:00.405Z,11.68
2022-10-22T18:23:26.917Z,14.35
2022-10-22T18:25:53.538Z,13.10
2022-10-22T18:28:20.489Z,11.95
2022-10-22T18:30:47.772Z,14.68
2022-10-22T18:33:16.643Z,18.00
2022-10-22T18:35:43.490Z,23.40
2022-10-22T18:38:10.803Z,14.77
2022-10-22T18:40:45.534Z,16.58
2022-10-22T18:43:12.092Z,12.23
2022-10-22T18:45:42.954Z,14.13
2022-10-22T18:48:09.636Z,11.15
2022-10-22T18:50:36.098Z,14.40
2022-10-22T18:53:02.744Z,12.90
2022-10-22T18:55:29.246Z,11.60
2022-10-22T18:57:55.705Z,13.82
2022-10-22T19:00:22.115Z,14.60
2022-10-22T19:02:48.591Z,16.70
2022-10-22T19:05:15.230Z,11.43
2022-10-22T19:07:41.961Z,10.90
2022-10-22T19:10:08.728Z,14.52
2022-10-22T19:12:35.306Z,14.65
2022-10-22T19:15:01.766Z,13.02
2022-10-22T19:17:30.138Z,13.52
2022-10-22T19:19:56.634Z,11.13
2022-10-22T19:22:23.109Z,11.60
2022-10-22T19:24:50.592Z,16.38
2022-10-22T19:27:18.715Z,11.70
2022-10-22T19:29:45.922Z,11.57
2022-10-22T19:32:13.170Z,14.10
2022-10-22T19:34:41.053Z,11.38
2022-10-22T19:37:08.143Z,11.65
2022-10-22T19:39:34.551Z,13.82
2022-10-22T19:42:01.716Z,12.43
2022-10-22T19:44:28.168Z,13.95
2022-10-22T19:46:54.567Z,14.02
2022-10-22T19:49:22.978Z,12.80
2022-10-22T19:51:49.678Z,11.02
2022-10-22T19:54:18.508Z,12.40
2022-10-22T19:56:46.306Z,20.80
2022-10-22T19:59:14.593Z,13.40
2022-10-22T20:01:41.100Z,13.13
2022-10-22T20:04:07.591Z,10.23
2022-10-22T20:06:34.051Z,14.27
2022-10-22T20:09:02.668Z,15.10
2022-10-22T20:11:29.827Z,16.52
2022-10-22T20:13:57.097Z,15.88
2022-10-22T20:16:25.280Z,13.88
2022-10-22T20:18:52.771Z,14.52
2022-10-22T20:21:19.930Z,14.50
2022-10-22T20:23:47.468Z,14.50
2022-10-22T20:26:15.138Z,14.00
2022-10-22T20:28:41.605Z,13.98
2022-10-22T20:31:11.875Z,12.95
2022-10-22T20:33:38.268Z,16.48
2022-10-22T20:36:09.573Z,12.63
2022-10-22T20:41:11.286Z,13.25
2022-10-22T20:43:37.862Z,13.65
2022-10-22T20:46:06.005Z,11.75
2022-10-22T20:48:32.687Z,11.50
2022-10-22T20:50:59.970Z,9.68
2022-10-22T20:53:26.902Z,19.58
2022-10-22T20:55:56.532Z,13.75
2022-10-22T20:58:25.949Z,15.40
2022-10-22T21:00:54.601Z,11.57
2022-10-22T21:03:21.130Z,12.75
2022-10-22T21:05:47.658Z,9.57
2022-10-22T21:08:17.375Z,9.77
2022-10-22T21:10:46.343Z,10.63
2022-10-22T21:13:13.707Z,10.63
2022-10-22T21:15:40.126Z,11.15
2022-10-22T21:18:07.028Z,9.55
2022-10-22T21:20:33.840Z,8.88
2022-10-22T21:23:00.723Z,12.25
2022-10-22T21:25:27.185Z,9.07
2022-10-22T21:27:53.633Z,8.23
2022-10-22T21:30:20.038Z,13.15
2022-10-22T21:32:46.462Z,7.78
2022-10-22T21:35:13.142Z,8.68
2022-10-22T21:37:39.885Z,10.05
2022-10-22T21:40:07.187Z,15.75
2022-10-22T21:42:34.205Z,12.15
2022-10-22T21:45:00.700Z,13.95
2022-10-22T21:47:27.180Z,9.48
2022-10-22T21:49:53.842Z,13.70
2022-10-22T21:52:20.279Z,11.55
2022-10-22T21:54:46.729Z,12.82
2022-10-22T21:57:13.146Z,11.55
2022-10-22T21:59:39.582Z,15.93
2022-10-22T22:02:06.172Z,10.15
2022-10-22T22:04:33.056Z,12.15
2022-10-22T22:06:59.608Z,12.65
2022-10-22T22:09:26.957Z,14.05
2022-10-22T22:11:53.431Z,14.30
2022-10-22T22:14:19.842Z,11.20
2022-10-22T22:16:46.290Z,12.50
2022-10-22T22:19:12.764Z,9.70
2022-10-22T22:21:40.369Z,15.85
2022-10-22T22:24:07.878Z,14.07
2022-10-22T22:26:34.484Z,11.65
2022-10-22T22:29:01.087Z,11.50
2022-10-22T22:31:30.666Z,11.98
2022-10-22T22:34:06.626Z,11.02
2022-10-22T22:36:38.701Z,12.52
2022-10-22T22:39:06.808Z,16.45
2022-10-22T22:41:33.526Z,11.73
2022-10-22T22:44:00.292Z,12.88
2022-10-22T22:46:26.843Z,15.25
2022-10-22T22:48:53.285Z,11.43
2022-10-22T22:51:19.750Z,12.25
2022-10-22T22:53:46.555Z,15.48
2022-10-22T22:56:22.094Z,13.45
2022-10-22T22:58:49.000Z,14.25
2022-10-22T23:01:23.089Z,16.08
2022-10-22T23:04:04.231Z,16.75
2022-10-22T23:06:32.552Z,12.05
2022-10-22T23:08:59.536Z,13.40
2022-10-22T23:11:27.121Z,18.33
2022-10-22T23:13:58.663Z,15.35
2022-10-22T23:16:27.381Z,17.60
2022-10-22T23:18:55.742Z,11.98
2022-10-22T23:21:25.282Z,15.85
2022-10-22T23:23:54.562Z,15.20
2022-10-22T23:26:24.062Z,13.45
2022-10-22T23:28:50.743Z,15.85
2022-10-22T23:31:18.773Z,14.05
2022-10-22T23:33:46.008Z,13.32
2022-10-22T23:36:13.755Z,13.90
2022-10-22T23:38:41.102Z,15.07
2022-10-22T23:41:09.399Z,13.80
2022-10-22T23:43:36.292Z,16.48
2022-10-22T23:46:04.704Z,15.20
2022-10-22T23:48:31.365Z,15.77
2022-10-22T23:50:57.868Z,17.83
2022-10-22T23:53:24.326Z,24.02
2022-10-22T23:55:51.129Z,17.88
2022-10-22T23:58:17.827Z,20.23
